createdAt,value
2022-12-11T14:18:43.868Z,28.65
2022-12-11T14:21:22.476Z,34.30
2022-12-11T14:24:17.903Z,31.90
2022-12-11T14:26:56.198Z,28.42
2022-12-11T14:29:29.714Z,28.95
2022-12-11T14:32:05.899Z,26.90
2022-12-11T14:34:40.370Z,27.65
2022-12-11T14:37:14.130Z,28.12
2022-12-11T14:39:49.357Z,32.45
2022-12-11T14:42:22.778Z,27.52
2022-12-11T14:44:57.255Z,34.48
2022-12-11T14:47:31.393Z,26.93
2022-12-11T14:50:05.900Z,28.60
2022-12-11T14:52:43.718Z,23.40
2022-12-11T14:58:05.525Z,30.15
2022-12-11T15:00:38.734Z,30.12
2022-12-11T15:03:23.911Z,36.98
2022-12-11T15:05:57.428Z,34.25
2022-12-11T15:08:31.056Z,38.23
2022-12-11T15:11:08.793Z,40.48
2022-12-11T15:13:43.104Z,33.92
2022-12-11T15:16:18.982Z,33.28
2022-12-11T15:18:52.659Z,36.42
2022-12-11T15:21:31.617Z,33.35
2022-12-11T15:24:05.792Z,30.17
2022-12-11T15:26:39.933Z,37.90
2022-12-11T15:29:27.579Z,38.48
2022-12-11T15:32:04.966Z,30.80
2022-12-11T15:34:38.599Z,35.60
2022-12-11T15:37:24.423Z,40.38
2022-12-11T15:39:58.143Z,35.25
2022-12-11T15:42:31.991Z,36.65
2022-12-11T15:45:05.268Z,35.83
2022-12-11T15:47:36.696Z,40.30
2022-12-11T15:50:16.321Z,32.28
2022-12-11T15:52:48.218Z,35.13
2022-12-11T15:55:23.672Z,31.57
2022-12-11T15:57:57.924Z,37.55
2022-12-11T16:00:29.294Z,36.98
2022-12-11T16:03:04.414Z,36.00
2022-12-11T16:05:35.995Z,38.28
2022-12-11T16:08:08.445Z,45.15
2022-12-11T16:10:39.918Z,38.30
2022-12-11T16:13:11.479Z,42.05
2022-12-11T16:15:45.321Z,35.80
2022-12-11T16:18:19.310Z,33.85
2022-12-11T16:20:52.124Z,39.83
2022-12-11T16:23:23.534Z,32.35
2022-12-11T16:25:54.847Z,36.15
2022-12-11T16:28:26.969Z,37.67
2022-12-11T16:33:37.702Z,41.23
2022-12-11T16:36:15.763Z,37.48
2022-12-11T16:38:53.213Z,40.43
2022-12-11T16:41:22.577Z,39.78
2022-12-11T16:43:54.747Z,49.23
2022-12-11T16:46:26.748Z,55.00
2022-12-11T16:48:58.342Z,49.48
2022-12-11T16:51:30.118Z,44.90
2022-12-11T16:54:01.938Z,42.30
2022-12-11T16:56:33.358Z,41.68
2022-12-11T16:59:05.610Z,41.40
2022-12-11T17:01:37.446Z,38.20
2022-12-11T17:04:09.214Z,46.15
2022-12-11T17:06:41.351Z,53.80
2022-12-11T17:09:24.039Z,48.15
2022-12-11T17:11:55.574Z,46.02
2022-12-11T17:14:27.184Z,42.62
2022-12-11T17:16:58.695Z,42.88
2022-12-11T17:19:30.286Z,39.25
2022-12-11T17:22:02.827Z,50.05
2022-12-11T17:24:35.587Z,41.25
2022-12-11T17:27:07.108Z,44.48
2022-12-11T17:29:38.498Z,47.38
2022-12-11T17:32:10.093Z,42.25
2022-12-11T17:34:41.520Z,41.28
2022-12-11T17:37:12.934Z,61.58
2022-12-11T17:39:44.551Z,58.23
2022-12-11T17:42:16.500Z,45.92
2022-12-11T17:47:17.658Z,54.95
2022-12-11T17:49:49.081Z,53.05
2022-12-11T17:52:20.717Z,45.15
2022-12-11T17:54:53.509Z,42.43
2022-12-11T17:57:24.972Z,50.28
2022-12-11T17:59:56.640Z,53.78
2022-12-11T18:02:28.774Z,46.98
2022-12-11T18:05:01.497Z,55.88
2022-12-11T18:10:19.188Z,49.33
2022-12-11T18:12:50.553Z,52.90
2022-12-11T18:15:22.062Z,48.75
2022-12-11T18:17:53.402Z,48.42
2022-12-11T18:20:26.719Z,43.25
2022-12-11T18:22:58.101Z,46.37
2022-12-11T18:25:29.647Z,45.63
2022-12-11T18:28:01.542Z,36.55
2022-12-11T18:30:32.936Z,46.75
2022-12-11T18:33:04.729Z,46.05
2022-12-11T18:35:36.235Z,41.75
2022-12-11T18:38:08.679Z,40.00
2022-12-11T18:40:40.923Z,43.08
2022-12-11T18:43:12.370Z,48.87
2022-12-11T18:45:45.708Z,53.42
2022-12-11T18:48:17.561Z,44.40
2022-12-11T18:50:52.343Z,51.45
2022-12-11T18:53:23.695Z,54.70
2022-12-11T18:56:00.184Z,50.20
2022-12-11T18:58:28.370Z,43.25
2022-12-11T19:01:00.068Z,49.25
2022-12-11T19:03:31.422Z,59.65
2022-12-11T19:06:09.494Z,48.98
2022-12-11T19:08:41.511Z,55.08
2022-12-11T19:13:53.525Z,50.30
2022-12-11T19:16:29.435Z,47.03
2022-12-11T19:19:02.248Z,44.25
2022-12-11T19:21:35.435Z,43.17
2022-12-11T19:24:10.189Z,43.28
2022-12-11T19:26:41.614Z,43.48
2022-12-11T19:29:17.241Z,42.38
2022-12-11T19:31:49.395Z,38.83
2022-12-11T19:34:20.867Z,37.13
2022-12-11T19:36:52.531Z,39.58
2022-12-11T19:39:24.070Z,37.78
2022-12-11T19:41:55.363Z,38.75
2022-12-11T19:44:26.971Z,27.20
2022-12-11T19:46:58.837Z,27.48
2022-12-11T19:49:30.346Z,20.62
2022-12-11T19:52:01.605Z,22.90
2022-12-11T19:54:33.119Z,32.50
2022-12-11T19:57:04.604Z,44.05
2022-12-11T19:59:36.067Z,36.55
2022-12-11T20:02:07.984Z,39.65
2022-12-11T20:04:39.357Z,50.63
2022-12-11T20:07:10.702Z,51.75
2022-12-11T20:09:42.179Z,71.33
2022-12-11T20:12:13.615Z,65.30
2022-12-11T20:14:45.055Z,49.18
2022-12-11T20:17:16.627Z,52.38
2022-12-11T20:19:48.270Z,50.30
2022-12-11T20:22:19.633Z,50.43
2022-12-11T20:24:51.077Z,42.48
2022-12-11T20:27:22.460Z,50.03
2022-12-11T20:29:53.789Z,48.02
2022-12-11T20:32:25.888Z,42.53
2022-12-11T20:34:58.298Z,41.18
2022-12-11T20:37:29.566Z,44.03
2022-12-11T20:40:01.386Z,48.35
2022-12-11T20:42:33.183Z,40.75
2022-12-11T20:45:04.876Z,45.35
2022-12-11T20:47:36.221Z,39.75
2022-12-11T20:50:11.049Z,43.15
2022-12-11T20:52:42.682Z,36.80
2022-12-11T20:55:14.852Z,33.25
2022-12-11T20:57:46.268Z,37.85
2022-12-11T21:00:19.648Z,38.58
2022-12-11T21:02:52.633Z,43.13
2022-12-11T21:05:24.357Z,43.42
2022-12-11T21:07:56.187Z,47.67
2022-12-11T21:10:27.624Z,43.20
2022-12-11T21:12:58.907Z,38.53
2022-12-11T21:15:30.225Z,35.25
2022-12-11T21:18:01.554Z,37.88
2022-12-11T21:20:33.082Z,35.33
2022-12-11T21:25:44.346Z,32.28
2022-12-11T21:28:15.897Z,31.57
2022-12-11T21:30:47.381Z,33.30
2022-12-11T21:33:18.951Z,33.67
2022-12-11T21:35:56.783Z,30.48
2022-12-11T21:38:28.895Z,35.83
2022-12-11T21:41:14.720Z,36.55
2022-12-11T21:45:14.623Z,27.32
2022-12-11T21:46:24.596Z,28.50
2022-12-11T21:48:56.025Z,29.50
2022-12-11T21:51:35.971Z,33.73
2022-12-11T21:54:03.052Z,29.32
2022-12-11T21:56:34.784Z,23.30
2022-12-11T21:59:06.316Z,20.10
2022-12-11T22:01:41.071Z,23.02
2022-12-11T22:04:29.298Z,24.40
2022-12-11T22:07:00.971Z,25.37
2022-12-11T22:09:32.230Z,24.15
2022-12-11T22:12:03.636Z,23.87
2022-12-11T22:14:36.426Z,30.52
2022-12-11T22:17:08.172Z,30.65
2022-12-11T22:19:39.589Z,28.83
2022-12-11T22:22:10.997Z,40.65
2022-12-11T22:24:42.615Z,30.60
2022-12-11T22:27:16.768Z,35.80
2022-12-11T22:29:47.059Z,34.67
2022-12-11T22:32:18.688Z,31.68
2022-12-11T22:34:50.033Z,31.20
2022-12-11T22:37:21.906Z,38.10
2022-12-11T22:39:53.493Z,31.75
2022-12-11T22:42:25.108Z,29.00
2022-12-11T22:44:56.584Z,31.52
2022-12-11T22:47:27.978Z,33.53
2022-12-11T22:49:59.216Z,38.08
2022-12-11T22:52:30.990Z,33.73
2022-12-11T22:55:02.874Z,39.45
2022-12-11T22:57:35.856Z,31.60
2022-12-11T23:00:11.019Z,30.48
2022-12-11T23:05:22.284Z,31.48
2022-12-11T23:07:53.882Z,35.03
2022-12-11T23:10:25.719Z,32.70
2022-12-11T23:12:56.966Z,41.58
2022-12-11T23:15:28.539Z,31.77
2022-12-11T23:17:59.942Z,34.63
2022-12-11T23:20:31.165Z,39.92
2022-12-11T23:23:02.792Z,36.05
2022-12-11T23:25:34.249Z,33.67
2022-12-11T23:28:05.677Z,30.50
2022-12-11T23:30:37.137Z,30.40
2022-12-11T23:33:08.639Z,29.90
2022-12-11T23:35:40.246Z,27.52
2022-12-11T23:38:11.577Z,26.65
2022-12-11T23:40:44.053Z,31.25
2022-12-11T23:43:15.415Z,31.70
2022-12-11T23:45:47.749Z,27.00
2022-12-11T23:48:19.229Z,29.20
2022-12-11T23:50:50.716Z,28.23
2022-12-11T23:53:22.199Z,28.52
2022-12-11T23:55:54.486Z,27.27
2022-12-11T23:58:25.875Z,26.85
